Alpine Moment — VREV7 — position and weather

sailwx.info

Track history (hours):
 
Tides and Currents Weather Stations Pressure Air Temp Water Temp Dewpoint Dewpoint Depression Visibility Wind Speed Wind Dir Waves Ship Positions

Alpine Moment

Last reported at 2016-Nov-25 18:20 UTC. Time now 2016-Dec-09 04:03 UTC.
Position N 09°13' W 079°55'.
Warning: this ship's position is 13 days out of date.

Length 183 m; draft 10.5 m.

Type: Tanker. MMSI: 477185800.

Date/timePositionNaut miles runAvg speedWind from/ knotsBaromVisibWave heightAir tempDewpointWater temp
2016-Nov-25 18:20N 09°13' W 079°55'3 0.4
2016-Nov-25 10:33N 09°16' W 079°55'1 0.8
2016-Nov-25 09:30N 09°17' W 079°55'1 1.2
2016-Nov-25 08:33N 09°18' W 079°55'5 5.0
2016-Nov-25 07:33N 09°23' W 079°56'0 0.0
2016-Nov-25 06:27N 09°23' W 079°56'0 0.0
2016-Nov-25 05:33N 09°23' W 079°56'0 0.1
2016-Nov-25 04:33N 09°23' W 079°56'0 0.1
2016-Nov-25 03:33N 09°23' W 079°56'0 0.0
2016-Nov-25 02:33N 09°23' W 079°56'0 0.0
2016-Nov-25 01:33N 09°23' W 079°56'0 0.0
2016-Nov-25 00:15N 09°23' W 079°56'0 0.1
2016-Nov-24 23:33N 09°23' W 079°56'0 0.1
2016-Nov-24 22:30N 09°23' W 079°56'0 0.0
2016-Nov-24 21:33N 09°23' W 079°56'0 0.0
2016-Nov-24 20:33N 09°23' W 079°56'0 0.0
2016-Nov-24 19:33N 09°23' W 079°56'0 0.1
2016-Nov-24 18:33N 09°23' W 079°56'0 0.1
2016-Nov-24 17:33N 09°23' W 079°56'0 0.0
2016-Nov-24 16:33N 09°23' W 079°56'2 1.8
2016-Nov-24 15:33N 09°25' W 079°55'1 0.9
2016-Nov-24 14:33N 09°25' W 079°56'1 1.4
2016-Nov-24 13:32N 09°24' W 079°56'0 0.0
2016-Nov-24 12:32N 09°24' W 079°56'0 0.0
2016-Nov-24 11:29N 09°24' W 079°56'0 0.0
2016-Nov-24 10:32N 09°24' W 079°56'0 0.0
2016-Nov-24 09:32N 09°24' W 079°56'0 0.0
2016-Nov-24 08:32N 09°24' W 079°56'0 0.0
2016-Nov-24 07:32N 09°24' W 079°56'0 0.0
2016-Nov-24 06:32N 09°24' W 079°56'0 0.0
2016-Nov-24 05:32N 09°24' W 079°56'0 0.0
2016-Nov-24 04:20N 09°24' W 079°56'0 0.0
2016-Nov-24 03:32N 09°24' W 079°56'0 0.0
2016-Nov-24 02:23N 09°24' W 079°56'0 0.0
2016-Nov-24 01:26N 09°24' W 079°56'0 0.0
2016-Nov-24 00:32N 09°24' W 079°56'0 0.0
2016-Nov-23 23:33N 09°24' W 079°56'1 1.4
2016-Nov-23 22:33N 09°25' W 079°55'  
Track history (hours):
 
Tides and Currents Weather Stations Pressure Air Temp Water Temp Dewpoint Dewpoint Depression Visibility Wind Speed Wind Dir Waves Ship Positions

Alpine Moment

Last reported at 2016-Nov-25 18:20 UTC. Time now 2016-Dec-09 04:03 UTC.
Position N 09°13' W 079°55'.
Warning: this ship's position is 13 days out of date.

Length 183 m; draft 10.5 m.

Type: Tanker. MMSI: 477185800.

Date/timePositionNaut miles runAvg speedWind from/ knotsBaromVisibWave heightAir tempDewpointWater temp
2016-Nov-25 18:20N 09°13' W 079°55'3 0.4
2016-Nov-25 10:33N 09°16' W 079°55'1 0.8
2016-Nov-25 09:30N 09°17' W 079°55'1 1.2
2016-Nov-25 08:33N 09°18' W 079°55'5 5.0
2016-Nov-25 07:33N 09°23' W 079°56'0 0.0
2016-Nov-25 06:27N 09°23' W 079°56'0 0.0
2016-Nov-25 05:33N 09°23' W 079°56'0 0.1
2016-Nov-25 04:33N 09°23' W 079°56'0 0.1
2016-Nov-25 03:33N 09°23' W 079°56'0 0.0
2016-Nov-25 02:33N 09°23' W 079°56'0 0.0
2016-Nov-25 01:33N 09°23' W 079°56'0 0.0
2016-Nov-25 00:15N 09°23' W 079°56'0 0.1
2016-Nov-24 23:33N 09°23' W 079°56'0 0.1
2016-Nov-24 22:30N 09°23' W 079°56'0 0.0
2016-Nov-24 21:33N 09°23' W 079°56'0 0.0
2016-Nov-24 20:33N 09°23' W 079°56'0 0.0
2016-Nov-24 19:33N 09°23' W 079°56'0 0.1
2016-Nov-24 18:33N 09°23' W 079°56'0 0.1
2016-Nov-24 17:33N 09°23' W 079°56'0 0.0
2016-Nov-24 16:33N 09°23' W 079°56'2 1.8
2016-Nov-24 15:33N 09°25' W 079°55'1 0.9
2016-Nov-24 14:33N 09°25' W 079°56'1 1.4
2016-Nov-24 13:32N 09°24' W 079°56'0 0.0
2016-Nov-24 12:32N 09°24' W 079°56'0 0.0
2016-Nov-24 11:29N 09°24' W 079°56'0 0.0
2016-Nov-24 10:32N 09°24' W 079°56'0 0.0
2016-Nov-24 09:32N 09°24' W 079°56'0 0.0
2016-Nov-24 08:32N 09°24' W 079°56'0 0.0
2016-Nov-24 07:32N 09°24' W 079°56'0 0.0
2016-Nov-24 06:32N 09°24' W 079°56'0 0.0
2016-Nov-24 05:32N 09°24' W 079°56'0 0.0
2016-Nov-24 04:20N 09°24' W 079°56'0 0.0
2016-Nov-24 03:32N 09°24' W 079°56'0 0.0
2016-Nov-24 02:23N 09°24' W 079°56'0 0.0
2016-Nov-24 01:26N 09°24' W 079°56'0 0.0
2016-Nov-24 00:32N 09°24' W 079°56'0 0.0
2016-Nov-23 23:33N 09°24' W 079°56'1 1.4
2016-Nov-23 22:33N 09°25' W 079°55'  

Dump ship's entire track history